Time;durP1;ratioP1;P1;durP2;ratioP2;P2;SDS_P1;SDS_P2;PMS_P1;PMS_P2;Temp;Humidity;BMP_temperature;BMP_pressure;BME280_temperature;BME280_humidity;BME280_pressure;Samples;Min_cycle;Max_cycle;Signal;HPM_P1;HPM_P2
2022/09/30 00:01:50;;;;;;;1.63;1.00;;;7.50;87.50;;;;;;4848968;29;20033;-78
2022/09/30 00:04:18;;;;;;;1.50;1.00;;;7.50;87.60;;;;;;4863701;29;20049;-77
2022/09/30 00:06:45;;;;;;;1.23;1.00;;;7.50;87.60;;;;;;4879676;29;20037;-78
2022/09/30 00:09:12;;;;;;;0.95;0.80;;;7.40;87.70;;;;;;4878053;29;20613;-77
2022/09/30 00:11:39;;;;;;;0.90;0.85;;;7.40;87.80;;;;;;4878341;29;20044;-77
2022/09/30 00:14:07;;;;;;;1.20;0.80;;;7.40;87.80;;;;;;4879909;29;20161;-77
2022/09/30 00:16:35;;;;;;;0.80;0.70;;;7.40;87.70;;;;;;4862726;29;20045;-77
2022/09/30 00:19:04;;;;;;;1.48;0.90;;;7.40;87.70;;;;;;4879119;29;20110;-78
2022/09/30 00:21:32;;;;;;;1.10;0.77;;;7.40;87.70;;;;;;4862517;29;20506;-78
2022/09/30 00:23:59;;;;;;;2.10;0.90;;;7.40;87.80;;;;;;4879329;29;20089;-78
2022/09/30 00:26:25;;;;;;;1.20;0.82;;;7.30;87.80;;;;;;4877859;29;20392;-77
2022/09/30 00:28:53;;;;;;;1.15;0.90;;;7.30;87.80;;;;;;4847220;29;20128;-78
2022/09/30 00:31:20;;;;;;;0.80;0.75;;;7.30;87.90;;;;;;4879371;29;20043;-78
2022/09/30 00:34:05;;;;;;;1.15;0.90;;;7.30;87.80;;;;;;4862237;29;20049;-78
2022/09/30 00:36:45;;;;;;;0.98;0.80;;;7.30;88.50;;;;;;4864810;29;20049;-78
2022/09/30 00:39:17;;;;;;;1.00;0.90;;;7.20;87.90;;;;;;4879263;29;20105;-78
2022/09/30 00:41:46;;;;;;;1.50;0.90;;;7.20;87.80;;;;;;4878800;29;20033;-78
2022/09/30 00:44:44;;;;;;;1.15;0.80;;;7.20;87.80;;;;;;4846337;29;20033;-78
2022/09/30 00:47:29;;;;;;;0.75;0.65;;;7.20;87.90;;;;;;4879140;29;20036;-78
2022/09/30 00:50:00;;;;;;;0.73;0.68;;;7.20;87.90;;;;;;4878855;29;20396;-77
2022/09/30 00:52:26;;;;;;;0.70;0.60;;;7.20;88.00;;;;;;4878923;29;20152;-78
2022/09/30 00:54:53;;;;;;;0.85;0.70;;;7.00;87.90;;;;;;4846935;29;20095;-78
2022/09/30 00:57:19;;;;;;;0.80;0.77;;;7.10;88.10;;;;;;4878599;29;20068;-78
2022/09/30 00:59:49;;;;;;;1.77;1.17;;;7.00;88.10;;;;;;4878728;29;20045;-77
2022/09/30 01:02:15;;;;;;;0.90;0.80;;;7.10;88.10;;;;;;4878938;29;20029;-78
2022/09/30 01:04:43;;;;;;;1.75;0.90;;;7.00;87.90;;;;;;4878826;29;20056;-77
2022/09/30 01:07:09;;;;;;;1.20;0.70;;;7.00;87.90;;;;;;4878903;29;20048;-78
2022/09/30 01:09:38;;;;;;;2.35;0.90;;;7.00;87.90;;;;;;4861582;29;20041;-78
2022/09/30 01:12:08;;;;;;;0.93;0.70;;;7.00;87.90;;;;;;4861992;29;20496;-78
2022/09/30 01:14:35;;;;;;;0.70;0.50;;;7.00;88.10;;;;;;4878492;29;20049;-77
2022/09/30 01:17:16;;;;;;;0.65;0.60;;;6.90;88.10;;;;;;4862045;29;20044;-78
2022/09/30 01:20:16;;;;;;;1.20;0.90;;;6.90;88.20;;;;;;4863230;29;20049;-78
2022/09/30 01:23:07;;;;;;;0.82;0.75;;;6.90;88.20;;;;;;4878607;29;20045;-78
2022/09/30 01:26:03;;;;;;;1.15;0.90;;;6.70;88.10;;;;;;4847470;29;20033;-77
2022/09/30 01:28:54;;;;;;;1.40;0.80;;;6.90;88.20;;;;;;4878251;29;20068;-77
2022/09/30 01:31:57;;;;;;;1.05;0.75;;;6.80;88.20;;;;;;4861516;29;20442;-78
2022/09/30 01:34:50;;;;;;;0.73;0.70;;;6.80;88.20;;;;;;4878154;29;20119;-78
2022/09/30 01:37:43;;;;;;;0.70;0.60;;;6.80;88.10;;;;;;4878099;29;20037;-78
2022/09/30 01:40:25;;;;;;;0.90;0.70;;;6.80;88.10;;;;;;4878001;29;20112;-77
2022/09/30 01:43:05;;;;;;;0.95;0.80;;;6.80;88.10;;;;;;4861452;29;20136;-77
2022/09/30 01:45:36;;;;;;;0.55;0.50;;;6.80;88.20;;;;;;4878178;29;20109;-77
2022/09/30 01:48:14;;;;;;;0.50;0.50;;;6.80;88.20;;;;;;4878424;29;20041;-77
2022/09/30 01:50:53;;;;;;;0.68;0.60;;;6.80;88.20;;;;;;4878365;29;20043;-78
2022/09/30 01:53:37;;;;;;;0.82;0.60;;;6.80;88.20;;;;;;4878223;29;20094;-77
2022/09/30 01:56:18;;;;;;;0.95;0.60;;;6.80;88.30;;;;;;4876856;29;20037;-77
2022/09/30 01:58:56;;;;;;;1.10;0.65;;;6.70;88.20;;;;;;4878293;29;20484;-78
2022/09/30 02:01:31;;;;;;;0.80;0.73;;;6.80;88.20;;;;;;4877867;29;20066;-78
2022/09/30 02:04:03;;;;;;;0.90;0.70;;;6.70;88.20;;;;;;4859011;29;20041;-77
2022/09/30 02:06:36;;;;;;;1.15;0.95;;;6.70;88.30;;;;;;4878029;29;20172;-78
2022/09/30 02:09:15;;;;;;;0.80;0.70;;;6.60;88.20;;;;;;4861242;29;20037;-77
2022/09/30 02:11:41;;;;;;;0.90;0.70;;;6.70;88.30;;;;;;4877466;29;20093;-78
2022/09/30 02:14:21;;;;;;;0.80;0.70;;;6.60;88.20;;;;;;4877544;29;20109;-78
2022/09/30 02:16:53;;;;;;;0.70;0.60;;;6.60;88.20;;;;;;4859644;29;20399;-77
2022/09/30 02:19:28;;;;;;;0.50;0.50;;;6.60;88.20;;;;;;4861125;29;20547;-77
2022/09/30 02:22:00;;;;;;;1.17;0.80;;;6.60;88.20;;;;;;4877554;29;20108;-77
2022/09/30 02:24:30;;;;;;;0.68;0.65;;;6.70;88.40;;;;;;4860834;29;20132;-77
2022/09/30 02:27:00;;;;;;;1.25;0.95;;;6.50;88.30;;;;;;4859620;29;20037;-78
2022/09/30 02:29:32;;;;;;;0.95;0.70;;;6.60;88.40;;;;;;4860782;29;20047;-77
2022/09/30 02:32:05;;;;;;;1.00;0.80;;;6.50;88.30;;;;;;4877327;29;20060;-77
2022/09/30 02:34:38;;;;;;;0.95;0.82;;;6.50;88.40;;;;;;4846014;29;20385;-77
2022/09/30 02:37:11;;;;;;;0.65;0.60;;;6.50;88.40;;;;;;4860926;29;20041;-77
2022/09/30 02:39:53;;;;;;;0.52;0.50;;;6.50;88.40;;;;;;4877455;29;20077;-77
2022/09/30 02:42:27;;;;;;;2.30;0.90;;;6.50;88.40;;;;;;4877358;29;20551;-77
2022/09/30 02:44:58;;;;;;;1.27;0.60;;;6.40;88.40;;;;;;4877728;29;20127;-77
2022/09/30 02:47:33;;;;;;;0.70;0.68;;;6.40;88.40;;;;;;4860497;29;20033;-77
2022/09/30 02:50:19;;;;;;;0.50;0.50;;;6.50;88.50;;;;;;4860642;29;20045;-77
2022/09/30 02:53:24;;;;;;;0.52;0.52;;;6.50;88.50;;;;;;4844407;29;20096;-77
2022/09/30 02:56:16;;;;;;;0.95;0.60;;;6.50;88.50;;;;;;4876943;29;20102;-78
2022/09/30 02:58:43;;;;;;;0.68;0.68;;;6.50;88.50;;;;;;4877495;29;20136;-77
2022/09/30 03:01:12;;;;;;;0.50;0.50;;;6.50;88.40;;;;;;4842235;29;20038;-77
2022/09/30 03:03:57;;;;;;;0.88;0.50;;;6.40;88.40;;;;;;4877131;29;20081;-77
2022/09/30 03:06:23;;;;;;;0.82;0.60;;;6.40;89.10;;;;;;4878108;29;20045;-77
2022/09/30 03:08:51;;;;;;;1.35;0.95;;;6.40;88.50;;;;;;4863613;29;20453;-78
2022/09/30 03:11:21;;;;;;;0.88;0.60;;;6.40;88.50;;;;;;4880449;29;20391;-77
2022/09/30 03:14:16;;;;;;;0.52;0.50;;;6.30;88.40;;;;;;4880336;29;20052;-77
2022/09/30 03:17:16;;;;;;;1.00;0.70;;;6.40;88.50;;;;;;4848748;29;20057;-77
2022/09/30 03:20:16;;;;;;;0.70;0.60;;;6.40;88.50;;;;;;4879916;29;20093;-77
2022/09/30 03:23:03;;;;;;;1.23;0.60;;;6.30;88.40;;;;;;4880035;29;20037;-77
2022/09/30 03:25:52;;;;;;;0.68;0.60;;;6.40;88.60;;;;;;4880221;29;20396;-77
2022/09/30 03:28:28;;;;;;;1.13;0.60;;;6.40;88.50;;;;;;4879124;29;20037;-78
2022/09/30 03:31:16;;;;;;;0.88;0.60;;;6.40;88.40;;;;;;4879996;29;20041;-77
2022/09/30 03:33:52;;;;;;;1.15;0.60;;;6.30;88.30;;;;;;4879880;29;20038;-78
2022/09/30 03:36:31;;;;;;;0.57;0.57;;;6.40;88.30;;;;;;4863408;29;20052;-77
2022/09/30 03:39:15;;;;;;;1.10;0.80;;;6.50;88.40;;;;;;4879725;29;20052;-77
2022/09/30 03:41:48;;;;;;;0.70;0.60;;;6.40;88.40;;;;;;4879832;29;20037;-77
2022/09/30 03:44:28;;;;;;;0.98;0.80;;;6.30;88.40;;;;;;4878359;29;20400;-78
2022/09/30 03:47:01;;;;;;;1.83;1.10;;;6.40;88.50;;;;;;4863191;29;20049;-77
2022/09/30 03:49:33;;;;;;;0.88;0.60;;;6.40;88.50;;;;;;4880127;29;20041;-77
2022/09/30 03:52:03;;;;;;;0.98;0.70;;;6.30;88.50;;;;;;4863505;29;20045;-78
2022/09/30 03:54:31;;;;;;;0.70;0.70;;;6.30;88.50;;;;;;4879881;29;20497;-77
2022/09/30 03:56:57;;;;;;;0.90;0.70;;;6.30;88.50;;;;;;4863149;29;20116;-78
2022/09/30 03:59:27;;;;;;;0.82;0.80;;;6.40;88.50;;;;;;4863079;29;20407;-77
2022/09/30 04:01:53;;;;;;;0.77;0.60;;;6.30;88.60;;;;;;4863370;29;20053;-77
2022/09/30 04:04:19;;;;;;;0.73;0.57;;;6.40;88.60;;;;;;4862844;29;20131;-77
2022/09/30 04:06:45;;;;;;;0.73;0.70;;;6.30;88.60;;;;;;4879595;29;20094;-76
2022/09/30 04:09:12;;;;;;;0.88;0.80;;;6.30;88.70;;;;;;4862918;29;20048;-77
2022/09/30 04:11:37;;;;;;;1.10;0.70;;;6.30;88.60;;;;;;4862659;29;20045;-77
2022/09/30 04:14:04;;;;;;;0.60;0.55;;;6.30;88.60;;;;;;4846515;29;20072;-77
2022/09/30 04:16:31;;;;;;;0.60;0.60;;;6.30;88.60;;;;;;4847322;29;20037;-77
2022/09/30 04:18:57;;;;;;;0.82;0.60;;;6.20;88.50;;;;;;4878258;29;20073;-77
2022/09/30 04:21:23;;;;;;;1.15;0.80;;;6.20;88.60;;;;;;4879147;29;20128;-77
2022/09/30 04:23:49;;;;;;;1.08;0.90;;;6.20;88.70;;;;;;4879018;29;20124;-77
2022/09/30 04:26:18;;;;;;;0.70;0.70;;;6.20;88.80;;;;;;4847154;29;20102;-77
2022/09/30 04:28:43;;;;;;;0.85;0.68;;;6.10;89.40;;;;;;4863008;29;20037;-77
2022/09/30 04:31:11;;;;;;;1.10;0.80;;;6.20;88.80;;;;;;4862854;29;20544;-77
2022/09/30 04:33:37;;;;;;;0.63;0.57;;;6.10;88.80;;;;;;4862947;29;20177;-76
2022/09/30 04:36:04;;;;;;;0.80;0.70;;;6.10;88.80;;;;;;4862402;29;20048;-77
2022/09/30 04:38:30;;;;;;;0.68;0.55;;;6.20;88.80;;;;;;4831983;29;20119;-77
2022/09/30 04:40:57;;;;;;;1.00;0.60;;;6.10;88.80;;;;;;4847833;29;20042;-77
2022/09/30 04:43:23;;;;;;;0.63;0.63;;;6.20;88.80;;;;;;4832354;29;20048;-77
2022/09/30 04:45:51;;;;;;;1.42;0.90;;;6.20;88.80;;;;;;4862529;29;20123;-76
2022/09/30 04:48:18;;;;;;;1.23;0.50;;;6.10;88.80;;;;;;4879065;29;20041;-77
2022/09/30 04:50:43;;;;;;;1.55;0.80;;;6.20;88.80;;;;;;4879720;29;20044;-77
2022/09/30 04:53:13;;;;;;;0.73;0.68;;;6.10;88.80;;;;;;4879201;29;20169;-77
2022/09/30 04:55:40;;;;;;;1.40;0.80;;;6.10;88.80;;;;;;4879804;29;20072;-76
2022/09/30 04:58:06;;;;;;;0.50;0.50;;;6.20;88.90;;;;;;4879054;29;20044;-76
2022/09/30 05:00:31;;;;;;;0.90;0.65;;;6.20;88.90;;;;;;4862455;29;20034;-76
2022/09/30 05:02:57;;;;;;;0.73;0.60;;;6.20;88.90;;;;;;4879456;29;20033;-76
2022/09/30 05:05:23;;;;;;;0.95;0.77;;;6.10;88.80;;;;;;4879562;29;20481;-76
2022/09/30 05:07:49;;;;;;;0.70;0.60;;;6.10;89.40;;;;;;4861916;29;20033;-76
2022/09/30 05:10:15;;;;;;;0.90;0.75;;;6.20;88.90;;;;;;4877341;29;20049;-76
2022/09/30 05:12:41;;;;;;;0.68;0.50;;;6.10;88.90;;;;;;4878867;29;20055;-76
2022/09/30 05:15:08;;;;;;;0.82;0.73;;;6.10;88.90;;;;;;4846657;29;20141;-77
2022/09/30 05:17:34;;;;;;;1.38;0.75;;;6.10;88.90;;;;;;4879286;29;20056;-76
2022/09/30 05:20:00;;;;;;;0.70;0.55;;;6.10;88.90;;;;;;4878902;29;20060;-76
2022/09/30 05:22:27;;;;;;;1.00;0.60;;;6.10;88.90;;;;;;4861850;29;20528;-76
2022/09/30 05:24:55;;;;;;;0.80;0.60;;;6.10;88.80;;;;;;4862420;29;20058;-77
2022/09/30 05:27:23;;;;;;;0.68;0.65;;;6.10;88.80;;;;;;4862409;29;20093;-75
2022/09/30 05:29:49;;;;;;;0.73;0.60;;;6.10;88.90;;;;;;4862003;29;20037;-78
2022/09/30 05:32:17;;;;;;;0.77;0.65;;;6.10;88.90;;;;;;4878791;29;20048;-78
2022/09/30 05:34:42;;;;;;;0.95;0.70;;;6.10;88.90;;;;;;4878319;29;20844;-78
2022/09/30 05:37:08;;;;;;;0.75;0.50;;;6.10;88.90;;;;;;4878583;29;20045;-77
2022/09/30 05:39:35;;;;;;;0.50;0.47;;;6.10;89.00;;;;;;4861406;29;20493;-78
2022/09/30 05:42:01;;;;;;;0.98;0.57;;;6.20;89.10;;;;;;4861867;29;20119;-78
2022/09/30 05:44:27;;;;;;;1.55;0.73;;;6.10;88.90;;;;;;4861771;29;20119;-79
2022/09/30 05:46:53;;;;;;;0.68;0.60;;;6.10;88.90;;;;;;4846360;29;20025;-77
2022/09/30 05:49:18;;;;;;;0.52;0.50;;;6.00;88.90;;;;;;4861746;29;20060;-78
2022/09/30 05:51:44;;;;;;;0.43;0.40;;;6.10;89.10;;;;;;4846244;29;20661;-77
2022/09/30 05:54:10;;;;;;;1.05;0.77;;;6.10;89.00;;;;;;4861529;29;20045;-77
2022/09/30 05:56:37;;;;;;;0.77;0.70;;;6.10;89.10;;;;;;4878285;29;20041;-77
2022/09/30 05:59:05;;;;;;;0.52;0.50;;;6.00;89.10;;;;;;4877949;29;20053;-77
2022/09/30 06:01:31;;;;;;;0.95;0.50;;;6.10;89.10;;;;;;4861457;29;20861;-77
2022/09/30 06:03:57;;;;;;;1.48;0.77;;;6.10;89.10;;;;;;4845921;29;20131;-77
2022/09/30 06:06:22;;;;;;;0.73;0.60;;;6.00;89.00;;;;;;4861082;29;20116;-77
2022/09/30 06:08:48;;;;;;;0.50;0.50;;;6.00;89.10;;;;;;4861113;29;20044;-78
2022/09/30 06:11:16;;;;;;;0.50;0.50;;;6.10;89.20;;;;;;4878190;29;20119;-78
2022/09/30 06:13:43;;;;;;;0.60;0.60;;;6.10;89.20;;;;;;4861698;29;20037;-77
2022/09/30 06:16:10;;;;;;;0.68;0.50;;;6.00;89.10;;;;;;4861092;29;20189;-78
2022/09/30 06:18:39;;;;;;;1.60;0.60;;;6.10;89.20;;;;;;4860875;29;20052;-78
2022/09/30 06:21:07;;;;;;;0.73;0.73;;;6.00;89.10;;;;;;4861282;29;20033;-77
2022/09/30 06:23:34;;;;;;;1.13;0.63;;;6.20;89.20;;;;;;4878013;29;20037;-77
2022/09/30 06:26:02;;;;;;;1.05;0.68;;;6.10;89.00;;;;;;4861487;29;20500;-77
2022/09/30 06:28:28;;;;;;;1.65;0.90;;;6.10;89.00;;;;;;4845879;29;20067;-77
2022/09/30 06:30:54;;;;;;;1.40;0.85;;;6.20;89.10;;;;;;4860901;29;20461;-77
2022/09/30 06:33:20;;;;;;;1.20;0.70;;;6.20;89.00;;;;;;4877783;29;20041;-77
2022/09/30 06:35:47;;;;;;;0.60;0.50;;;6.10;89.60;;;;;;4861022;29;20075;-77
2022/09/30 06:38:15;;;;;;;0.55;0.55;;;6.20;89.00;;;;;;4877575;29;20048;-77
2022/09/30 06:40:42;;;;;;;0.60;0.52;;;6.20;88.90;;;;;;4860624;29;20137;-76
2022/09/30 06:43:10;;;;;;;0.93;0.75;;;6.30;89.00;;;;;;4860639;29;20515;-76
2022/09/30 06:45:36;;;;;;;0.88;0.63;;;6.30;88.90;;;;;;4877852;29;20041;-76
2022/09/30 06:48:04;;;;;;;1.02;0.60;;;6.30;88.80;;;;;;4877408;29;20080;-76
2022/09/30 06:50:31;;;;;;;0.80;0.80;;;6.40;88.80;;;;;;4878301;29;20037;-76
2022/09/30 06:53:01;;;;;;;1.05;0.77;;;6.50;88.80;;;;;;4877442;29;20037;-76
2022/09/30 06:55:28;;;;;;;0.65;0.50;;;6.40;88.70;;;;;;4878191;29;20052;-76
2022/09/30 06:57:55;;;;;;;1.00;0.70;;;6.50;88.70;;;;;;4872536;29;20045;-76
2022/09/30 07:00:27;;;;;;;0.90;0.65;;;6.50;88.70;;;;;;4876169;29;20061;-77
2022/09/30 07:02:55;;;;;;;1.13;0.68;;;6.60;88.70;;;;;;4839833;29;20432;-76
2022/09/30 07:08:37;;;;;;;1.48;0.90;;;6.60;88.50;;;;;;4788467;29;20499;-77
2022/09/30 07:11:13;;;;;;;1.48;0.73;;;6.80;88.60;;;;;;4786448;29;20107;-77
2022/09/30 07:16:56;;;;;;;1.10;0.95;;;7.00;88.40;;;;;;4749344;30;20514;-77
2022/09/30 07:19:21;;;;;;;1.58;1.00;;;7.00;88.20;;;;;;4729896;30;20091;-77
2022/09/30 07:21:55;;;;;;;1.38;1.00;;;7.10;88.10;;;;;;4730740;30;20420;-78
2022/09/30 07:24:21;;;;;;;1.17;0.88;;;7.20;88.20;;;;;;4680914;30;20061;-75
2022/09/30 07:26:56;;;;;;;1.98;1.13;;;7.20;88.00;;;;;;4680530;30;20053;-76
2022/09/30 07:29:27;;;;;;;1.77;1.10;;;7.20;88.00;;;;;;4681690;30;20077;-75
2022/09/30 07:31:56;;;;;;;1.58;1.13;;;7.40;88.00;;;;;;4680735;30;20057;-76
2022/09/30 07:34:25;;;;;;;1.60;1.13;;;7.50;87.90;;;;;;4688935;30;20509;-76
2022/09/30 07:39:56;;;;;;;1.20;1.00;;;7.60;88.00;;;;;;4714843;30;20045;-77
2022/09/30 07:42:22;;;;;;;2.17;0.95;;;7.70;87.90;;;;;;4712600;30;20149;-76
2022/09/30 07:44:50;;;;;;;2.03;1.20;;;7.70;87.90;;;;;;4715542;30;20041;-76
2022/09/30 07:47:16;;;;;;;0.85;0.80;;;7.80;87.90;;;;;;4722843;30;20044;-77
2022/09/30 07:50:09;;;;;;;2.50;1.30;;;8.00;88.00;;;;;;4739986;30;20083;-78
2022/09/30 08:07:31;;;;;;;2.75;1.73;;;8.70;87.10;;;;;;4803845;29;20088;-78
2022/09/30 08:10:09;;;;;;;2.67;1.50;;;8.90;87.00;;;;;;4813121;29;20493;-76
2022/09/30 08:33:49;;;;;;;2.95;2.10;;;9.90;86.10;;;;;;4674582;30;20069;-77
2022/09/30 08:36:45;;;;;;;3.47;2.08;;;10.00;86.10;;;;;;4622013;30;20053;-79
2022/09/30 08:40:04;;;;;;;3.00;1.90;;;10.20;86.20;;;;;;4627479;31;20540;-77
2022/09/30 08:53:45;;;;;;;2.97;1.80;;;10.60;85.80;;;;;;4625700;31;20578;-81
2022/09/30 08:56:39;;;;;;;2.90;1.92;;;10.70;85.70;;;;;;4649230;30;20051;-80
2022/09/30 08:59:22;;;;;;;3.17;1.73;;;10.70;85.50;;;;;;4650461;30;20054;-79
2022/09/30 09:01:53;;;;;;;1.98;1.40;;;10.90;85.60;;;;;;4640658;30;20491;-77
2022/09/30 09:04:19;;;;;;;4.13;2.25;;;11.00;85.70;;;;;;4699835;30;20037;-77
2022/09/30 09:06:56;;;;;;;3.60;2.20;;;11.00;85.70;;;;;;4715480;30;20059;-78
2022/09/30 09:39:06;;;;;;;2.78;2.03;;;12.00;84.30;;;;;;4635110;30;20062;-76
2022/09/30 09:41:52;;;;;;;3.78;2.35;;;12.10;84.00;;;;;;4646883;31;20043;-78
2022/09/30 09:44:28;;;;;;;3.15;2.15;;;12.20;84.00;;;;;;4620660;31;20452;-75
2022/09/30 09:47:12;;;;;;;3.50;1.90;;;12.10;83.90;;;;;;4642059;31;20047;-75
2022/09/30 09:49:42;;;;;;;3.42;2.38;;;12.40;84.20;;;;;;4644210;31;20102;-76
2022/09/30 09:52:45;;;;;;;3.88;2.55;;;12.30;84.00;;;;;;4643153;30;20039;-76
2022/09/30 09:55:12;;;;;;;3.55;2.28;;;12.50;83.90;;;;;;4644848;30;20096;-77
2022/09/30 09:57:39;;;;;;;3.72;2.53;;;12.60;83.70;;;;;;4641886;30;20047;-77
2022/09/30 10:03:11;;;;;;;4.03;2.67;;;12.70;83.60;;;;;;4642914;30;20552;-81
2022/09/30 10:05:41;;;;;;;4.18;2.67;;;12.70;83.60;;;;;;4746170;30;20038;-81
2022/09/30 10:08:12;;;;;;;4.93;2.83;;;12.80;83.50;;;;;;4832146;29;20046;-81
2022/09/30 10:11:02;;;;;;;3.63;2.53;;;12.80;83.40;;;;;;4809897;29;20078;-80
2022/09/30 10:13:39;;;;;;;4.72;3.20;;;13.00;83.40;;;;;;4840384;29;20101;-80
2022/09/30 10:16:24;;;;;;;3.80;2.70;;;13.00;83.30;;;;;;4838716;29;20846;-81
2022/09/30 10:18:50;;;;;;;3.17;2.22;;;13.00;83.20;;;;;;4823284;29;20129;-80
2022/09/30 10:21:25;;;;;;;3.53;1.98;;;13.00;83.20;;;;;;4821862;29;20077;-81
2022/09/30 10:23:51;;;;;;;4.35;2.97;;;13.00;83.30;;;;;;4806018;29;20046;-80
2022/09/30 10:26:21;;;;;;;3.50;2.28;;;13.10;83.30;;;;;;4822331;29;20524;-80
2022/09/30 10:28:51;;;;;;;3.75;2.50;;;13.10;83.20;;;;;;4820827;29;20148;-80
2022/09/30 10:31:30;;;;;;;4.00;2.50;;;13.20;83.10;;;;;;4803363;29;20379;-81
2022/09/30 10:34:20;;;;;;;3.80;2.35;;;13.20;82.90;;;;;;4825927;29;20057;-81
2022/09/30 10:36:46;;;;;;;2.63;1.85;;;13.30;82.90;;;;;;4839009;29;20038;-80
2022/09/30 10:39:25;;;;;;;2.97;2.20;;;13.30;82.80;;;;;;4849707;29;20101;-81
2022/09/30 10:42:03;;;;;;;3.53;2.25;;;13.50;82.70;;;;;;4858122;29;20837;-80
2022/09/30 10:44:34;;;;;;;3.80;2.47;;;13.50;82.60;;;;;;4833025;29;20065;-81
2022/09/30 10:47:02;;;;;;;4.45;2.80;;;13.60;82.50;;;;;;4802764;29;20120;-81
2022/09/30 10:49:35;;;;;;;4.00;2.75;;;13.70;82.50;;;;;;4810886;29;20061;-81
2022/09/30 10:52:03;;;;;;;3.17;2.50;;;13.70;82.20;;;;;;4820759;29;20108;-81
2022/09/30 10:54:42;;;;;;;2.88;2.20;;;13.80;82.00;;;;;;4829476;29;20082;-81
2022/09/30 10:57:18;;;;;;;3.22;2.25;;;13.80;81.90;;;;;;4831905;29;20053;-80
2022/09/30 11:00:13;;;;;;;3.17;2.20;;;13.80;81.80;;;;;;4823090;29;20529;-81
2022/09/30 11:02:53;;;;;;;3.10;2.25;;;14.00;81.80;;;;;;4821256;29;20047;-81
2022/09/30 11:05:27;;;;;;;2.30;1.85;;;14.00;81.70;;;;;;4822659;29;20125;-81
2022/09/30 11:08:08;;;;;;;2.95;2.05;;;14.10;81.50;;;;;;4829148;29;20494;-81
2022/09/30 11:11:13;;;;;;;2.80;2.10;;;14.10;82.00;;;;;;4824867;29;20038;-81
2022/09/30 11:13:49;;;;;;;2.40;1.98;;;14.20;81.20;;;;;;4821700;29;20035;-80
2022/09/30 11:16:28;;;;;;;2.35;1.70;;;14.30;81.10;;;;;;4869123;29;20044;-81
2022/09/30 11:19:15;;;;;;;2.47;1.98;;;14.50;81.10;;;;;;4863157;29;20135;-80
2022/09/30 11:21:49;;;;;;;2.10;1.80;;;14.50;80.80;;;;;;4881163;29;20592;-81
2022/09/30 11:24:31;;;;;;;2.50;1.85;;;14.50;80.70;;;;;;4880078;29;20064;-80
2022/09/30 11:27:23;;;;;;;2.42;1.67;;;14.60;80.60;;;;;;4850281;29;20061;-81
2022/09/30 11:30:28;;;;;;;3.20;2.30;;;14.70;80.40;;;;;;4867458;29;20119;-81
2022/09/30 11:33:26;;;;;;;2.50;1.92;;;14.70;80.20;;;;;;4869703;29;20047;-80
2022/09/30 11:36:07;;;;;;;3.08;2.15;;;14.70;80.20;;;;;;4867860;29;20041;-80
2022/09/30 11:38:51;;;;;;;2.42;1.80;;;14.70;80.20;;;;;;4882662;29;20043;-80
2022/09/30 11:41:29;;;;;;;3.05;1.92;;;14.80;80.20;;;;;;4882123;29;20033;-80
2022/09/30 11:44:34;;;;;;;3.42;2.30;;;14.90;80.00;;;;;;4866710;29;20037;-80
2022/09/30 11:47:30;;;;;;;4.03;2.45;;;15.00;79.80;;;;;;4870833;29;20033;-83
2022/09/30 11:50:17;;;;;;;3.17;2.10;;;15.00;79.50;;;;;;4869813;29;20043;-80
2022/09/30 11:53:08;;;;;;;2.50;1.70;;;15.00;79.60;;;;;;4891706;29;20086;-78
2022/09/30 11:55:56;;;;;;;2.75;1.77;;;15.10;79.60;;;;;;4880458;29;20048;-78
2022/09/30 11:58:27;;;;;;;3.03;2.00;;;15.20;79.60;;;;;;4877737;29;20053;-77
2022/09/30 12:01:05;;;;;;;2.92;2.10;;;15.20;79.50;;;;;;4883114;29;20076;-78
2022/09/30 12:03:41;;;;;;;3.28;2.00;;;15.30;79.20;;;;;;4845465;29;20038;-75
2022/09/30 12:06:35;;;;;;;3.25;2.13;;;15.50;79.20;;;;;;4840453;29;20038;-76
2022/09/30 12:09:42;;;;;;;3.45;2.20;;;15.50;78.60;;;;;;4789606;29;20050;-75
2022/09/30 12:15:54;;;;;;;2.80;1.85;;;15.70;78.40;;;;;;4731333;30;20953;-75
2022/09/30 12:19:00;;;;;;;2.22;1.63;;;15.80;78.10;;;;;;4705057;30;20151;-76
2022/09/30 12:25:00;;;;;;;2.13;1.60;;;16.00;77.70;;;;;;4659317;30;20915;-75
2022/09/30 12:27:32;;;;;;;2.38;1.80;;;16.10;77.40;;;;;;4646316;30;20055;-75
2022/09/30 12:30:19;;;;;;;1.90;1.40;;;16.20;77.10;;;;;;4663713;30;20057;-77
2022/09/30 12:33:14;;;;;;;2.58;1.40;;;16.20;76.90;;;;;;4663694;30;20541;-76
2022/09/30 12:36:11;;;;;;;1.65;1.10;;;16.20;77.00;;;;;;4679819;30;20136;-76
2022/09/30 12:38:57;;;;;;;1.30;1.20;;;16.10;77.40;;;;;;4680056;30;20058;-76
2022/09/30 12:41:51;;;;;;;1.58;1.00;;;16.10;77.30;;;;;;4697002;30;20060;-76
2022/09/30 12:44:43;;;;;;;1.00;0.90;;;16.20;77.20;;;;;;4682567;30;20140;-76
2022/09/30 12:47:31;;;;;;;1.13;0.82;;;16.30;77.50;;;;;;4813765;29;20042;-76
2022/09/30 12:49:59;;;;;;;1.08;0.80;;;16.40;76.70;;;;;;4821000;29;20125;-76
2022/09/30 12:52:29;;;;;;;1.15;0.80;;;16.50;76.50;;;;;;4853693;29;20045;-76
2022/09/30 12:55:04;;;;;;;1.15;0.90;;;16.50;76.50;;;;;;4879252;29;20049;-76
2022/09/30 12:57:35;;;;;;;0.73;0.70;;;16.50;76.40;;;;;;4879110;29;20095;-76
2022/09/30 13:00:04;;;;;;;;;;;16.50;76.40;;;;;;4878036;29;20084;-76
2022/09/30 13:02:38;;;;;;;0.88;0.70;;;16.50;76.40;;;;;;4877721;29;19923;-77
2022/09/30 13:05:42;;;;;;;1.02;0.70;;;16.30;76.50;;;;;;4846086;29;20088;-76
2022/09/30 13:08:24;;;;;;;0.85;0.63;;;16.30;76.80;;;;;;4878836;29;20068;-76
2022/09/30 13:10:59;;;;;;;0.52;0.52;;;16.20;77.10;;;;;;4845285;29;20046;-76
2022/09/30 13:13:28;;;;;;;0.60;0.50;;;16.20;77.50;;;;;;4879416;29;20040;-76
2022/09/30 13:16:02;;;;;;;0.82;0.52;;;16.20;77.50;;;;;;4879333;29;20041;-76
2022/09/30 13:18:57;;;;;;;1.02;0.73;;;16.40;77.00;;;;;;4861235;29;20040;-76
2022/09/30 13:21:24;;;;;;;0.73;0.60;;;16.40;76.60;;;;;;4866339;29;20033;-76
2022/09/30 13:23:53;;;;;;;0.55;0.52;;;16.40;76.50;;;;;;4878724;29;20041;-76
2022/09/30 13:26:33;;;;;;;0.40;0.40;;;16.40;76.50;;;;;;4879236;29;20116;-76
2022/09/30 13:29:31;;;;;;;0.63;0.63;;;16.50;76.30;;;;;;4878539;29;20075;-76
2022/09/30 13:32:04;;;;;;;0.50;0.47;;;16.60;76.10;;;;;;4866719;29;20047;-76
2022/09/30 13:34:32;;;;;;;0.68;0.50;;;16.70;75.90;;;;;;4878990;29;20555;-76
2022/09/30 13:37:00;;;;;;;1.05;0.70;;;16.80;75.60;;;;;;4878813;29;20049;-76
2022/09/30 13:39:39;;;;;;;0.47;0.47;;;16.90;75.10;;;;;;4878565;29;20436;-76
2022/09/30 13:42:16;;;;;;;0.77;0.57;;;16.80;75.00;;;;;;4878463;29;20057;-76
2022/09/30 13:45:06;;;;;;;0.40;0.40;;;16.70;75.40;;;;;;4878498;29;20064;-76
2022/09/30 13:47:43;;;;;;;0.73;0.65;;;16.50;75.80;;;;;;4864935;29;20045;-76
2022/09/30 13:50:24;;;;;;;0.45;0.45;;;16.50;76.00;;;;;;4878191;29;20514;-76
2022/09/30 13:52:55;;;;;;;0.40;0.40;;;16.60;75.70;;;;;;4878304;29;20084;-76
2022/09/30 13:55:27;;;;;;;1.00;0.60;;;16.60;75.70;;;;;;4878375;29;20057;-75
2022/09/30 13:58:23;;;;;;;0.98;0.63;;;16.60;75.60;;;;;;4879032;29;20530;-75
2022/09/30 14:01:03;;;;;;;0.52;0.52;;;16.50;75.50;;;;;;4880484;29;20045;-75
2022/09/30 14:04:02;;;;;;;0.93;0.60;;;16.50;75.50;;;;;;4883028;29;20049;-76
2022/09/30 14:06:59;;;;;;;0.50;0.50;;;16.50;75.50;;;;;;4854498;29;20046;-76
2022/09/30 14:09:43;;;;;;;0.70;0.60;;;16.30;75.70;;;;;;4881656;29;20134;-76
2022/09/30 14:12:38;;;;;;;0.80;0.60;;;16.40;75.90;;;;;;4866145;29;20037;-75
2022/09/30 14:15:29;;;;;;;1.30;0.82;;;16.40;75.70;;;;;;4871922;29;20041;-75
2022/09/30 14:18:28;;;;;;;2.08;0.80;;;16.50;75.10;;;;;;4879531;29;20049;-76
2022/09/30 14:21:20;;;;;;;1.75;0.80;;;16.40;74.80;;;;;;4868699;29;20048;-76
2022/09/30 14:23:54;;;;;;;0.77;0.70;;;16.50;74.80;;;;;;4878521;29;20040;-76
2022/09/30 14:26:51;;;;;;;0.63;0.60;;;16.50;74.80;;;;;;4869058;29;20072;-76
2022/09/30 14:29:39;;;;;;;0.88;0.57;;;16.50;74.90;;;;;;4877788;29;20077;-75
2022/09/30 14:32:27;;;;;;;0.82;0.50;;;16.60;74.80;;;;;;4884936;29;20049;-75
2022/09/30 14:34:53;;;;;;;1.40;0.70;;;16.50;74.80;;;;;;4877518;29;20057;-76
2022/09/30 14:37:34;;;;;;;0.50;0.50;;;16.50;74.80;;;;;;4847339;29;20140;-75
2022/09/30 14:40:00;;;;;;;0.77;0.50;;;16.50;74.80;;;;;;4887293;29;20060;-75
2022/09/30 14:42:30;;;;;;;0.90;0.50;;;16.50;74.70;;;;;;4886062;29;20075;-75
2022/09/30 14:45:03;;;;;;;0.30;0.30;;;16.40;75.20;;;;;;4879956;29;20049;-75
2022/09/30 14:47:37;;;;;;;0.73;0.60;;;16.40;74.60;;;;;;4881380;29;20045;-75
2022/09/30 14:50:09;;;;;;;1.15;0.50;;;16.40;74.70;;;;;;4865951;29;20041;-75
2022/09/30 14:52:40;;;;;;;0.55;0.38;;;16.40;74.80;;;;;;4882522;29;20053;-75
2022/09/30 14:55:24;;;;;;;0.40;0.32;;;16.40;74.80;;;;;;4861901;29;20527;-76
2022/09/30 14:57:50;;;;;;;0.32;0.32;;;16.40;74.90;;;;;;4877287;29;20056;-77
2022/09/30 15:00:28;;;;;;;0.70;0.40;;;16.40;74.70;;;;;;4878765;29;20049;-76
2022/09/30 15:02:55;;;;;;;0.43;0.43;;;16.40;74.50;;;;;;4876364;29;20510;-77
2022/09/30 15:05:20;;;;;;;0.75;0.40;;;16.40;74.40;;;;;;4878189;29;20042;-78
2022/09/30 15:07:46;;;;;;;0.40;0.40;;;16.30;74.40;;;;;;4881796;29;20497;-77
2022/09/30 15:10:19;;;;;;;0.70;0.50;;;16.30;74.50;;;;;;4835012;29;20049;-76
2022/09/30 15:12:47;;;;;;;0.30;0.30;;;16.20;74.60;;;;;;4880757;29;20052;-76